sensor_id;sensor_type;location;lat;lon;timestamp;temperature;humidity
69225;DHT22;56333;51.306;17.056;2023-02-27T00:00:02;1.52;72.20
69225;DHT22;56333;51.306;17.056;2023-02-27T00:01:57;1.51;72.13
69225;DHT22;56333;51.306;17.056;2023-02-27T00:03:27;1.50;71.90
69225;DHT22;56333;51.306;17.056;2023-02-27T00:04:57;1.47;71.95
69225;DHT22;56333;51.306;17.056;2023-02-27T00:06:26;1.47;71.78
69225;DHT22;56333;51.306;17.056;2023-02-27T00:07:55;1.43;71.70
69225;DHT22;56333;51.306;17.056;2023-02-27T00:09:24;1.42;71.78
69225;DHT22;56333;51.306;17.056;2023-02-27T00:10:54;1.43;71.75
69225;DHT22;56333;51.306;17.056;2023-02-27T00:12:22;1.40;71.75
69225;DHT22;56333;51.306;17.056;2023-02-27T00:13:51;1.38;71.75
69225;DHT22;56333;51.306;17.056;2023-02-27T00:15:21;1.38;71.80
69225;DHT22;56333;51.306;17.056;2023-02-27T00:16:50;1.36;71.88
69225;DHT22;56333;51.306;17.056;2023-02-27T00:18:19;1.35;71.88
69225;DHT22;56333;51.306;17.056;2023-02-27T00:19:48;1.32;71.95
69225;DHT22;56333;51.306;17.056;2023-02-27T00:21:17;1.33;72.00
69225;DHT22;56333;51.306;17.056;2023-02-27T00:22:47;1.36;72.20
69225;DHT22;56333;51.306;17.056;2023-02-27T00:24:16;1.37;72.40
69225;DHT22;56333;51.306;17.056;2023-02-27T00:25:45;1.38;72.63
69225;DHT22;56333;51.306;17.056;2023-02-27T00:27:15;1.40;72.60
69225;DHT22;56333;51.306;17.056;2023-02-27T00:28:44;1.40;72.47
69225;DHT22;56333;51.306;17.056;2023-02-27T00:30:14;1.44;72.50
69225;DHT22;56333;51.306;17.056;2023-02-27T00:31:43;1.42;72.38
69225;DHT22;56333;51.306;17.056;2023-02-27T00:33:13;1.40;72.05
69225;DHT22;56333;51.306;17.056;2023-02-27T00:34:42;1.37;72.03
69225;DHT22;56333;51.306;17.056;2023-02-27T00:36:11;1.37;72.18
69225;DHT22;56333;51.306;17.056;2023-02-27T00:37:40;1.38;72.07
69225;DHT22;56333;51.306;17.056;2023-02-27T00:39:09;1.37;72.05
69225;DHT22;56333;51.306;17.056;2023-02-27T00:40:39;1.37;72.00
69225;DHT22;56333;51.306;17.056;2023-02-27T00:42:08;1.36;71.80
69225;DHT22;56333;51.306;17.056;2023-02-27T00:43:37;1.36;71.80
69225;DHT22;56333;51.306;17.056;2023-02-27T00:45:08;1.33;71.72
69225;DHT22;56333;51.306;17.056;2023-02-27T00:46:37;1.33;71.78
69225;DHT22;56333;51.306;17.056;2023-02-27T00:48:07;1.32;71.82
69225;DHT22;56333;51.306;17.056;2023-02-27T00:49:35;1.31;71.65
69225;DHT22;56333;51.306;17.056;2023-02-27T00:51:04;1.29;71.60
69225;DHT22;56333;51.306;17.056;2023-02-27T00:52:34;1.21;71.63
69225;DHT22;56333;51.306;17.056;2023-02-27T00:54:02;1.23;71.80
69225;DHT22;56333;51.306;17.056;2023-02-27T00:55:32;1.24;72.07
69225;DHT22;56333;51.306;17.056;2023-02-27T00:57:01;1.24;72.32
69225;DHT22;56333;51.306;17.056;2023-02-27T00:58:30;1.29;72.55
69225;DHT22;56333;51.306;17.056;2023-02-27T00:59:59;1.32;72.40
69225;DHT22;56333;51.306;17.056;2023-02-27T01:01:29;1.33;72.40
69225;DHT22;56333;51.306;17.056;2023-02-27T01:02:58;1.36;72.20
69225;DHT22;56333;51.306;17.056;2023-02-27T01:04:28;1.37;71.93
69225;DHT22;56333;51.306;17.056;2023-02-27T01:05:57;1.35;71.53
69225;DHT22;56333;51.306;17.056;2023-02-27T01:07:26;1.33;71.55
69225;DHT22;56333;51.306;17.056;2023-02-27T01:08:54;1.32;71.47
69225;DHT22;56333;51.306;17.056;2023-02-27T01:10:23;1.30;71.30
69225;DHT22;56333;51.306;17.056;2023-02-27T01:11:52;1.28;71.15
69225;DHT22;56333;51.306;17.056;2023-02-27T01:13:21;1.26;71.25
69225;DHT22;56333;51.306;17.056;2023-02-27T01:14:50;1.26;71.22
69225;DHT22;56333;51.306;17.056;2023-02-27T01:16:19;1.24;71.22
69225;DHT22;56333;51.306;17.056;2023-02-27T01:17:49;1.22;71.18
69225;DHT22;56333;51.306;17.056;2023-02-27T01:19:18;1.20;71.15
69225;DHT22;56333;51.306;17.056;2023-02-27T01:20:47;1.20;71.20
69225;DHT22;56333;51.306;17.056;2023-02-27T01:22:19;1.18;71.15
69225;DHT22;56333;51.306;17.056;2023-02-27T01:23:49;1.17;70.97
69225;DHT22;56333;51.306;17.056;2023-02-27T01:25:18;1.14;70.93
69225;DHT22;56333;51.306;17.056;2023-02-27T01:26:47;1.13;71.05
69225;DHT22;56333;51.306;17.056;2023-02-27T01:28:16;1.12;71.15
69225;DHT22;56333;51.306;17.056;2023-02-27T01:29:44;1.09;71.10
69225;DHT22;56333;51.306;17.056;2023-02-27T01:31:13;1.08;71.35
69225;DHT22;56333;51.306;17.056;2023-02-27T01:32:42;1.10;71.60
69225;DHT22;56333;51.306;17.056;2023-02-27T01:34:12;1.13;71.90
69225;DHT22;56333;51.306;17.056;2023-02-27T01:35:41;1.17;72.05
69225;DHT22;56333;51.306;17.056;2023-02-27T01:37:10;1.21;72.13
69225;DHT22;56333;51.306;17.056;2023-02-27T01:38:40;1.23;71.80
69225;DHT22;56333;51.306;17.056;2023-02-27T01:40:10;1.23;71.70
69225;DHT22;56333;51.306;17.056;2023-02-27T01:41:40;1.24;71.70
69225;DHT22;56333;51.306;17.056;2023-02-27T01:43:14;1.23;71.40
69225;DHT22;56333;51.306;17.056;2023-02-27T01:45:15;1.22;71.40
69225;DHT22;56333;51.306;17.056;2023-02-27T01:46:56;1.21;71.25
69225;DHT22;56333;51.306;17.056;2023-02-27T01:48:26;1.19;71.35
69225;DHT22;56333;51.306;17.056;2023-02-27T01:49:58;1.20;71.18
69225;DHT22;56333;51.306;17.056;2023-02-27T01:51:29;1.17;71.03
69225;DHT22;56333;51.306;17.056;2023-02-27T01:53:02;1.14;70.95
69225;DHT22;56333;51.306;17.056;2023-02-27T01:54:33;1.10;71.03
69225;DHT22;56333;51.306;17.056;2023-02-27T01:56:06;1.09;71.18
69225;DHT22;56333;51.306;17.056;2023-02-27T01:57:41;1.06;71.22
69225;DHT22;56333;51.306;17.056;2023-02-27T01:59:13;1.04;71.20
69225;DHT22;56333;51.306;17.056;2023-02-27T02:00:47;1.03;71.30
69225;DHT22;56333;51.306;17.056;2023-02-27T02:02:20;1.01;71.28
69225;DHT22;56333;51.306;17.056;2023-02-27T02:03:56;0.98;71.30
69225;DHT22;56333;51.306;17.056;2023-02-27T02:05:31;0.99;71.40
69225;DHT22;56333;51.306;17.056;2023-02-27T02:07:02;0.98;71.38
69225;DHT22;56333;51.306;17.056;2023-02-27T02:08:38;0.95;71.45
69225;DHT22;56333;51.306;17.056;2023-02-27T02:10:10;0.96;71.72
69225;DHT22;56333;51.306;17.056;2023-02-27T02:11:41;0.98;71.75
69225;DHT22;56333;51.306;17.056;2023-02-27T02:13:14;1.00;72.05
69225;DHT22;56333;51.306;17.056;2023-02-27T02:14:44;1.04;72.20
69225;DHT22;56333;51.306;17.056;2023-02-27T02:16:25;1.07;72.03
69225;DHT22;56333;51.306;17.056;2023-02-27T02:18:14;1.08;71.88
69225;DHT22;56333;51.306;17.056;2023-02-27T02:20:05;1.08;71.68
69225;DHT22;56333;51.306;17.056;2023-02-27T02:26:51;1.09;71.50
69225;DHT22;56333;51.306;17.056;2023-02-27T02:28:42;1.10;71.47
69225;DHT22;56333;51.306;17.056;2023-02-27T02:31:00;1.08;71.65
69225;DHT22;56333;51.306;17.056;2023-02-27T02:33:24;1.07;71.55
69225;DHT22;56333;51.306;17.056;2023-02-27T02:38:39;1.03;71.85
69225;DHT22;56333;51.306;17.056;2023-02-27T02:40:29;1.03;71.88
69225;DHT22;56333;51.306;17.056;2023-02-27T02:42:07;1.03;71.70
69225;DHT22;56333;51.306;17.056;2023-02-27T02:43:54;1.03;71.82
69225;DHT22;56333;51.306;17.056;2023-02-27T02:45:35;1.02;71.88
69225;DHT22;56333;51.306;17.056;2023-02-27T02:47:19;1.04;71.90
69225;DHT22;56333;51.306;17.056;2023-02-27T02:48:57;1.05;72.20
69225;DHT22;56333;51.306;17.056;2023-02-27T02:50:35;1.07;72.47
69225;DHT22;56333;51.306;17.056;2023-02-27T02:52:11;1.09;72.70
69225;DHT22;56333;51.306;17.056;2023-02-27T02:53:49;1.11;72.78
69225;DHT22;56333;51.306;17.056;2023-02-27T02:55:25;1.09;72.50
69225;DHT22;56333;51.306;17.056;2023-02-27T02:57:01;1.09;72.45
69225;DHT22;56333;51.306;17.056;2023-02-27T02:58:38;1.10;72.30
69225;DHT22;56333;51.306;17.056;2023-02-27T03:00:20;1.07;72.15
69225;DHT22;56333;51.306;17.056;2023-02-27T03:01:56;1.03;72.13
69225;DHT22;56333;51.306;17.056;2023-02-27T03:03:31;1.00;72.22
69225;DHT22;56333;51.306;17.056;2023-02-27T03:05:04;1.00;72.20
69225;DHT22;56333;51.306;17.056;2023-02-27T03:06:37;0.96;72.10
69225;DHT22;56333;51.306;17.056;2023-02-27T03:08:12;0.95;72.18
69225;DHT22;56333;51.306;17.056;2023-02-27T03:09:47;0.94;72.15
69225;DHT22;56333;51.306;17.056;2023-02-27T03:11:20;0.91;72.25
69225;DHT22;56333;51.306;17.056;2023-02-27T03:12:56;0.87;72.57
69225;DHT22;56333;51.306;17.056;2023-02-27T03:14:31;0.87;72.63
69225;DHT22;56333;51.306;17.056;2023-02-27T03:16:08;0.88;72.90
69225;DHT22;56333;51.306;17.056;2023-02-27T03:17:44;0.92;73.13
69225;DHT22;56333;51.306;17.056;2023-02-27T03:19:19;0.92;73.05
69225;DHT22;56333;51.306;17.056;2023-02-27T03:20:54;0.90;72.93
69225;DHT22;56333;51.306;17.056;2023-02-27T03:22:29;0.91;72.90
69225;DHT22;56333;51.306;17.056;2023-02-27T03:24:03;0.91;72.88
69225;DHT22;56333;51.306;17.056;2023-02-27T03:25:36;0.92;72.72
69225;DHT22;56333;51.306;17.056;2023-02-27T03:27:09;0.92;72.72
69225;DHT22;56333;51.306;17.056;2023-02-27T03:28:41;0.93;72.72
69225;DHT22;56333;51.306;17.056;2023-02-27T03:30:25;0.95;72.57
69225;DHT22;56333;51.306;17.056;2023-02-27T03:32:01;0.92;72.60
69225;DHT22;56333;51.306;17.056;2023-02-27T03:33:39;0.90;72.65
69225;DHT22;56333;51.306;17.056;2023-02-27T03:35:14;0.89;72.63
69225;DHT22;56333;51.306;17.056;2023-02-27T03:36:46;0.87;72.57
69225;DHT22;56333;51.306;17.056;2023-02-27T03:38:25;0.83;72.82
69225;DHT22;56333;51.306;17.056;2023-02-27T03:40:06;0.79;73.03
69225;DHT22;56333;51.306;17.056;2023-02-27T03:41:46;0.76;73.30
69225;DHT22;56333;51.306;17.056;2023-02-27T03:43:28;0.80;73.40
69225;DHT22;56333;51.306;17.056;2023-02-27T03:45:06;0.83;73.57
69225;DHT22;56333;51.306;17.056;2023-02-27T03:46:42;0.85;73.65
69225;DHT22;56333;51.306;17.056;2023-02-27T03:48:11;0.86;73.72
69225;DHT22;56333;51.306;17.056;2023-02-27T03:49:41;0.88;73.65
69225;DHT22;56333;51.306;17.056;2023-02-27T03:51:13;0.91;73.53
69225;DHT22;56333;51.306;17.056;2023-02-27T03:52:45;0.91;73.43
69225;DHT22;56333;51.306;17.056;2023-02-27T03:54:16;0.90;73.32
69225;DHT22;56333;51.306;17.056;2023-02-27T03:55:49;0.90;73.25
69225;DHT22;56333;51.306;17.056;2023-02-27T03:57:19;0.89;73.15
69225;DHT22;56333;51.306;17.056;2023-02-27T03:58:49;0.90;73.18
69225;DHT22;56333;51.306;17.056;2023-02-27T04:00:20;0.88;73.10
69225;DHT22;56333;51.306;17.056;2023-02-27T04:01:49;0.86;73.10
69225;DHT22;56333;51.306;17.056;2023-02-27T04:03:17;0.83;73.32
69225;DHT22;56333;51.306;17.056;2023-02-27T04:04:46;0.81;73.18
69225;DHT22;56333;51.306;17.056;2023-02-27T04:06:39;0.75;73.32
69225;DHT22;56333;51.306;17.056;2023-02-27T04:08:39;0.72;73.38
69225;DHT22;56333;51.306;17.056;2023-02-27T04:10:24;0.72;73.22
69225;DHT22;56333;51.306;17.056;2023-02-27T04:12:22;0.72;73.50
69225;DHT22;56333;51.306;17.056;2023-02-27T04:14:13;0.75;73.72
69225;DHT22;56333;51.306;17.056;2023-02-27T04:16:19;0.81;73.95
69225;DHT22;56333;51.306;17.056;2023-02-27T04:18:14;0.84;74.00
69225;DHT22;56333;51.306;17.056;2023-02-27T04:20:11;0.85;73.95
69225;DHT22;56333;51.306;17.056;2023-02-27T04:21:59;0.85;73.85
69225;DHT22;56333;51.306;17.056;2023-02-27T04:23:40;0.86;73.72
69225;DHT22;56333;51.306;17.056;2023-02-27T04:27:33;0.81;73.95
69225;DHT22;56333;51.306;17.056;2023-02-27T04:29:10;0.81;73.65
69225;DHT22;56333;51.306;17.056;2023-02-27T04:30:51;0.81;73.55
69225;DHT22;56333;51.306;17.056;2023-02-27T04:32:32;0.79;73.68
69225;DHT22;56333;51.306;17.056;2023-02-27T04:34:08;0.79;73.78
69225;DHT22;56333;51.306;17.056;2023-02-27T04:35:45;0.79;73.78
69225;DHT22;56333;51.306;17.056;2023-02-27T04:37:20;0.79;73.78
69225;DHT22;56333;51.306;17.056;2023-02-27T04:38:57;0.78;73.70
69225;DHT22;56333;51.306;17.056;2023-02-27T04:40:34;0.76;73.95
69225;DHT22;56333;51.306;17.056;2023-02-27T04:42:08;0.78;74.00
69225;DHT22;56333;51.306;17.056;2023-02-27T04:43:42;0.81;74.22
69225;DHT22;56333;51.306;17.056;2023-02-27T04:45:14;0.85;74.47
69225;DHT22;56333;51.306;17.056;2023-02-27T04:46:47;0.91;74.70
69225;DHT22;56333;51.306;17.056;2023-02-27T04:48:21;0.95;74.63
69225;DHT22;56333;51.306;17.056;2023-02-27T04:50:00;0.92;74.40
69225;DHT22;56333;51.306;17.056;2023-02-27T04:51:37;0.93;74.32
69225;DHT22;56333;51.306;17.056;2023-02-27T04:53:17;0.90;74.30
69225;DHT22;56333;51.306;17.056;2023-02-27T04:54:52;0.91;74.30
69225;DHT22;56333;51.306;17.056;2023-02-27T04:56:29;0.92;74.25
69225;DHT22;56333;51.306;17.056;2023-02-27T04:58:05;0.93;74.15
69225;DHT22;56333;51.306;17.056;2023-02-27T04:59:40;0.92;74.07
69225;DHT22;56333;51.306;17.056;2023-02-27T05:01:15;0.92;74.07
69225;DHT22;56333;51.306;17.056;2023-02-27T05:02:51;0.94;74.00
69225;DHT22;56333;51.306;17.056;2023-02-27T05:04:28;0.92;73.82
69225;DHT22;56333;51.306;17.056;2023-02-27T05:06:02;0.89;73.95
69225;DHT22;56333;51.306;17.056;2023-02-27T05:07:35;0.89;73.93
69225;DHT22;56333;51.306;17.056;2023-02-27T05:09:10;0.87;74.05
69225;DHT22;56333;51.306;17.056;2023-02-27T05:10:48;0.87;74.00
69225;DHT22;56333;51.306;17.056;2023-02-27T05:12:27;0.86;74.25
69225;DHT22;56333;51.306;17.056;2023-02-27T05:14:03;0.90;74.38
69225;DHT22;56333;51.306;17.056;2023-02-27T05:15:39;0.94;74.63
69225;DHT22;56333;51.306;17.056;2023-02-27T05:17:16;0.96;74.78
69225;DHT22;56333;51.306;17.056;2023-02-27T05:18:47;0.99;74.80
69225;DHT22;56333;51.306;17.056;2023-02-27T05:20:16;1.01;74.68
69225;DHT22;56333;51.306;17.056;2023-02-27T05:21:47;1.00;74.43
69225;DHT22;56333;51.306;17.056;2023-02-27T05:23:28;0.99;74.40
69225;DHT22;56333;51.306;17.056;2023-02-27T05:25:09;0.95;74.30
69225;DHT22;56333;51.306;17.056;2023-02-27T05:28:48;0.94;74.28
69225;DHT22;56333;51.306;17.056;2023-02-27T05:30:25;0.92;74.18
69225;DHT22;56333;51.306;17.056;2023-02-27T05:32:06;0.91;74.25
69225;DHT22;56333;51.306;17.056;2023-02-27T05:33:49;0.91;74.32
69225;DHT22;56333;51.306;17.056;2023-02-27T05:35:38;0.93;74.22
69225;DHT22;56333;51.306;17.056;2023-02-27T05:37:17;0.92;74.07
69225;DHT22;56333;51.306;17.056;2023-02-27T05:38:54;0.87;74.00
69225;DHT22;56333;51.306;17.056;2023-02-27T05:40:28;0.85;74.07
69225;DHT22;56333;51.306;17.056;2023-02-27T05:42:02;0.81;74.43
69225;DHT22;56333;51.306;17.056;2023-02-27T05:43:37;0.81;74.63
69225;DHT22;56333;51.306;17.056;2023-02-27T05:45:13;0.85;74.85
69225;DHT22;56333;51.306;17.056;2023-02-27T05:46:51;0.86;74.97
69225;DHT22;56333;51.306;17.056;2023-02-27T05:48:25;0.86;74.93
69225;DHT22;56333;51.306;17.056;2023-02-27T05:50:00;0.88;74.88
69225;DHT22;56333;51.306;17.056;2023-02-27T05:51:36;0.88;74.80
69225;DHT22;56333;51.306;17.056;2023-02-27T05:53:09;0.90;74.78
69225;DHT22;56333;51.306;17.056;2023-02-27T05:54:43;0.88;74.65
69225;DHT22;56333;51.306;17.056;2023-02-27T05:56:17;0.88;74.50
69225;DHT22;56333;51.306;17.056;2023-02-27T05:57:52;0.88;74.40
69225;DHT22;56333;51.306;17.056;2023-02-27T05:59:28;0.84;74.32
69225;DHT22;56333;51.306;17.056;2023-02-27T06:01:03;0.82;74.32
69225;DHT22;56333;51.306;17.056;2023-02-27T06:02:34;0.79;74.28
69225;DHT22;56333;51.306;17.056;2023-02-27T06:04:03;0.75;74.22
69225;DHT22;56333;51.306;17.056;2023-02-27T06:05:32;0.71;74.28
69225;DHT22;56333;51.306;17.056;2023-02-27T06:07:01;0.69;74.20
69225;DHT22;56333;51.306;17.056;2023-02-27T06:08:30;0.62;74.60
69225;DHT22;56333;51.306;17.056;2023-02-27T06:09:59;0.60;74.80
69225;DHT22;56333;51.306;17.056;2023-02-27T06:11:28;0.60;74.93
69225;DHT22;56333;51.306;17.056;2023-02-27T06:12:57;0.59;75.18
69225;DHT22;56333;51.306;17.056;2023-02-27T06:14:26;0.62;75.22
69225;DHT22;56333;51.306;17.056;2023-02-27T06:15:55;0.64;75.20
69225;DHT22;56333;51.306;17.056;2023-02-27T06:17:24;0.64;75.07
69225;DHT22;56333;51.306;17.056;2023-02-27T06:18:53;0.65;75.05
69225;DHT22;56333;51.306;17.056;2023-02-27T06:20:21;0.62;75.00
69225;DHT22;56333;51.306;17.056;2023-02-27T06:21:51;0.61;74.88
69225;DHT22;56333;51.306;17.056;2023-02-27T06:23:19;0.61;75.00
69225;DHT22;56333;51.306;17.056;2023-02-27T06:24:49;0.63;74.88
69225;DHT22;56333;51.306;17.056;2023-02-27T06:26:18;0.62;74.85
69225;DHT22;56333;51.306;17.056;2023-02-27T06:27:46;0.65;74.82
69225;DHT22;56333;51.306;17.056;2023-02-27T06:29:15;0.64;74.95
69225;DHT22;56333;51.306;17.056;2023-02-27T06:30:45;0.64;74.82
69225;DHT22;56333;51.306;17.056;2023-02-27T06:32:14;0.66;74.90
69225;DHT22;56333;51.306;17.056;2023-02-27T06:33:43;0.70;75.10
69225;DHT22;56333;51.306;17.056;2023-02-27T06:35:13;0.75;75.32
69225;DHT22;56333;51.306;17.056;2023-02-27T06:36:43;0.82;75.47
69225;DHT22;56333;51.306;17.056;2023-02-27T06:38:13;0.85;75.32
69225;DHT22;56333;51.306;17.056;2023-02-27T06:39:43;0.87;75.05
69225;DHT22;56333;51.306;17.056;2023-02-27T06:41:11;0.88;74.90
69225;DHT22;56333;51.306;17.056;2023-02-27T06:42:40;0.87;74.82
69225;DHT22;56333;51.306;17.056;2023-02-27T06:44:10;0.85;74.78
69225;DHT22;56333;51.306;17.056;2023-02-27T06:45:40;0.84;74.78
69225;DHT22;56333;51.306;17.056;2023-02-27T06:47:09;0.83;74.80
69225;DHT22;56333;51.306;17.056;2023-02-27T06:48:39;0.83;74.75
69225;DHT22;56333;51.306;17.056;2023-02-27T06:50:10;0.82;74.65
69225;DHT22;56333;51.306;17.056;2023-02-27T06:51:40;0.83;74.60
69225;DHT22;56333;51.306;17.056;2023-02-27T06:53:09;0.86;74.65
69225;DHT22;56333;51.306;17.056;2023-02-27T06:54:40;0.88;74.60
69225;DHT22;56333;51.306;17.056;2023-02-27T06:56:10;0.90;74.55
69225;DHT22;56333;51.306;17.056;2023-02-27T06:57:39;0.92;74.40
69225;DHT22;56333;51.306;17.056;2023-02-27T06:59:08;0.94;74.50
69225;DHT22;56333;51.306;17.056;2023-02-27T07:00:37;0.98;74.60
69225;DHT22;56333;51.306;17.056;2023-02-27T07:02:08;1.04;74.78
69225;DHT22;56333;51.306;17.056;2023-02-27T07:03:39;1.08;74.80
69225;DHT22;56333;51.306;17.056;2023-02-27T07:05:09;1.11;75.00
69225;DHT22;56333;51.306;17.056;2023-02-27T07:06:38;1.13;74.80
69225;DHT22;56333;51.306;17.056;2023-02-27T07:08:09;1.18;74.72
69225;DHT22;56333;51.306;17.056;2023-02-27T07:09:42;1.19;74.53
69225;DHT22;56333;51.306;17.056;2023-02-27T07:11:15;1.19;74.22
69225;DHT22;56333;51.306;17.056;2023-02-27T07:12:45;1.18;74.18
69225;DHT22;56333;51.306;17.056;2023-02-27T07:14:17;1.18;74.20
69225;DHT22;56333;51.306;17.056;2023-02-27T07:15:53;1.16;74.03
69225;DHT22;56333;51.306;17.056;2023-02-27T07:17:25;1.15;74.03
69225;DHT22;56333;51.306;17.056;2023-02-27T07:18:56;1.11;74.22
69225;DHT22;56333;51.306;17.056;2023-02-27T07:20:26;1.12;74.32
69225;DHT22;56333;51.306;17.056;2023-02-27T07:21:57;1.12;74.30
69225;DHT22;56333;51.306;17.056;2023-02-27T07:23:27;1.14;74.43
69225;DHT22;56333;51.306;17.056;2023-02-27T07:24:58;1.18;74.63
69225;DHT22;56333;51.306;17.056;2023-02-27T07:26:26;1.26;74.85
69225;DHT22;56333;51.306;17.056;2023-02-27T07:27:56;1.32;74.82
69225;DHT22;56333;51.306;17.056;2023-02-27T07:29:26;1.41;74.90
69225;DHT22;56333;51.306;17.056;2023-02-27T07:30:55;1.45;74.40
69225;DHT22;56333;51.306;17.056;2023-02-27T07:32:25;1.50;74.35
69225;DHT22;56333;51.306;17.056;2023-02-27T07:33:55;1.53;74.00
69225;DHT22;56333;51.306;17.056;2023-02-27T07:35:30;1.52;73.82
69225;DHT22;56333;51.306;17.056;2023-02-27T07:37:01;1.50;73.57
69225;DHT22;56333;51.306;17.056;2023-02-27T07:38:30;1.50;73.68
69225;DHT22;56333;51.306;17.056;2023-02-27T07:40:00;1.51;73.75
69225;DHT22;56333;51.306;17.056;2023-02-27T07:41:30;1.50;73.55
69225;DHT22;56333;51.306;17.056;2023-02-27T07:42:59;1.49;73.60
69225;DHT22;56333;51.306;17.056;2023-02-27T07:44:28;1.50;73.55
69225;DHT22;56333;51.306;17.056;2023-02-27T07:45:58;1.50;73.40
69225;DHT22;56333;51.306;17.056;2023-02-27T07:47:27;1.46;73.40
69225;DHT22;56333;51.306;17.056;2023-02-27T07:48:57;1.48;73.43
69225;DHT22;56333;51.306;17.056;2023-02-27T07:50:27;1.48;73.45
69225;DHT22;56333;51.306;17.056;2023-02-27T07:51:57;1.43;73.35
69225;DHT22;56333;51.306;17.056;2023-02-27T07:53:26;1.46;73.63
69225;DHT22;56333;51.306;17.056;2023-02-27T07:54:56;1.53;73.93
69225;DHT22;56333;51.306;17.056;2023-02-27T07:56:25;1.58;74.18
69225;DHT22;56333;51.306;17.056;2023-02-27T07:57:54;1.64;74.03
69225;DHT22;56333;51.306;17.056;2023-02-27T07:59:23;1.72;74.15
69225;DHT22;56333;51.306;17.056;2023-02-27T08:00:53;1.77;73.88
69225;DHT22;56333;51.306;17.056;2023-02-27T08:02:22;1.85;73.90
69225;DHT22;56333;51.306;17.056;2023-02-27T08:03:53;1.88;73.25
69225;DHT22;56333;51.306;17.056;2023-02-27T08:05:22;1.91;72.97
69225;DHT22;56333;51.306;17.056;2023-02-27T08:06:52;1.97;73.13
69225;DHT22;56333;51.306;17.056;2023-02-27T08:08:22;1.99;72.72
69225;DHT22;56333;51.306;17.056;2023-02-27T08:09:51;2.01;72.47
69225;DHT22;56333;51.306;17.056;2023-02-27T08:11:21;2.03;72.68
69225;DHT22;56333;51.306;17.056;2023-02-27T08:12:51;2.06;72.65
69225;DHT22;56333;51.306;17.056;2023-02-27T08:14:20;2.11;72.53
69225;DHT22;56333;51.306;17.056;2023-02-27T08:15:50;2.12;72.05
69225;DHT22;56333;51.306;17.056;2023-02-27T08:17:18;2.17;72.32
69225;DHT22;56333;51.306;17.056;2023-02-27T08:18:47;2.24;72.35
69225;DHT22;56333;51.306;17.056;2023-02-27T08:20:16;2.28;72.30
69225;DHT22;56333;51.306;17.056;2023-02-27T08:21:47;2.32;71.97
69225;DHT22;56333;51.306;17.056;2023-02-27T08:23:16;2.34;71.88
69225;DHT22;56333;51.306;17.056;2023-02-27T08:24:45;2.34;71.80
69225;DHT22;56333;51.306;17.056;2023-02-27T08:26:15;2.33;71.80
69225;DHT22;56333;51.306;17.056;2023-02-27T08:27:45;2.37;72.38
69225;DHT22;56333;51.306;17.056;2023-02-27T08:29:15;2.44;72.70
69225;DHT22;56333;51.306;17.056;2023-02-27T08:30:44;2.52;72.82
69225;DHT22;56333;51.306;17.056;2023-02-27T08:32:14;2.56;72.30
69225;DHT22;56333;51.306;17.056;2023-02-27T08:33:44;2.58;72.07
69225;DHT22;56333;51.306;17.056;2023-02-27T08:35:12;2.60;71.63
69225;DHT22;56333;51.306;17.056;2023-02-27T08:36:42;2.60;71.38
69225;DHT22;56333;51.306;17.056;2023-02-27T08:38:10;2.61;71.18
69225;DHT22;56333;51.306;17.056;2023-02-27T08:39:40;2.62;71.25
69225;DHT22;56333;51.306;17.056;2023-02-27T08:41:09;2.62;71.28
69225;DHT22;56333;51.306;17.056;2023-02-27T08:42:38;2.63;71.18
69225;DHT22;56333;51.306;17.056;2023-02-27T08:44:09;2.68;71.18
69225;DHT22;56333;51.306;17.056;2023-02-27T08:45:39;2.65;70.82
69225;DHT22;56333;51.306;17.056;2023-02-27T08:47:08;2.64;70.85
69225;DHT22;56333;51.306;17.056;2023-02-27T08:48:37;2.68;71.07
69225;DHT22;56333;51.306;17.056;2023-02-27T08:50:09;2.74;71.03
69225;DHT22;56333;51.306;17.056;2023-02-27T08:51:38;2.73;70.22
69225;DHT22;56333;51.306;17.056;2023-02-27T08:53:07;2.78;70.63
69225;DHT22;56333;51.306;17.056;2023-02-27T08:54:37;2.76;70.15
69225;DHT22;56333;51.306;17.056;2023-02-27T08:56:06;2.78;70.47
69225;DHT22;56333;51.306;17.056;2023-02-27T08:57:36;2.82;70.72
69225;DHT22;56333;51.306;17.056;2023-02-27T08:59:06;2.88;70.72
69225;DHT22;56333;51.306;17.056;2023-02-27T09:00:35;2.95;70.65
69225;DHT22;56333;51.306;17.056;2023-02-27T09:02:04;2.99;70.38
69225;DHT22;56333;51.306;17.056;2023-02-27T09:03:34;3.02;70.28
69225;DHT22;56333;51.306;17.056;2023-02-27T09:05:05;3.06;70.20
69225;DHT22;56333;51.306;17.056;2023-02-27T09:06:35;3.06;70.07
69225;DHT22;56333;51.306;17.056;2023-02-27T09:08:04;3.11;70.38
69225;DHT22;56333;51.306;17.056;2023-02-27T09:09:33;3.17;70.00
69225;DHT22;56333;51.306;17.056;2023-02-27T09:11:03;3.19;70.10
69225;DHT22;56333;51.306;17.056;2023-02-27T09:12:32;3.22;70.30
69225;DHT22;56333;51.306;17.056;2023-02-27T09:14:01;3.26;70.55
69225;DHT22;56333;51.306;17.056;2023-02-27T09:15:31;3.31;70.28
69225;DHT22;56333;51.306;17.056;2023-02-27T09:17:02;3.39;70.47
69225;DHT22;56333;51.306;17.056;2023-02-27T09:18:32;3.48;70.28
69225;DHT22;56333;51.306;17.056;2023-02-27T09:20:01;3.58;70.35
69225;DHT22;56333;51.306;17.056;2023-02-27T09:21:32;3.63;69.80
69225;DHT22;56333;51.306;17.056;2023-02-27T09:23:02;3.68;69.63
69225;DHT22;56333;51.306;17.056;2023-02-27T09:24:31;3.74;69.45
69225;DHT22;56333;51.306;17.056;2023-02-27T09:26:00;3.79;69.05
69225;DHT22;56333;51.306;17.056;2023-02-27T09:27:30;3.86;69.22
69225;DHT22;56333;51.306;17.056;2023-02-27T09:28:59;3.92;69.15
69225;DHT22;56333;51.306;17.056;2023-02-27T09:30:28;3.91;68.53
69225;DHT22;56333;51.306;17.056;2023-02-27T09:31:58;3.85;67.97
69225;DHT22;56333;51.306;17.056;2023-02-27T09:33:27;3.79;68.10
69225;DHT22;56333;51.306;17.056;2023-02-27T09:34:56;3.71;68.13
69225;DHT22;56333;51.306;17.056;2023-02-27T09:36:25;3.66;68.30
69225;DHT22;56333;51.306;17.056;2023-02-27T09:37:54;3.59;68.38
69225;DHT22;56333;51.306;17.056;2023-02-27T09:39:25;3.56;68.85
69225;DHT22;56333;51.306;17.056;2023-02-27T09:40:55;3.53;68.90
69225;DHT22;56333;51.306;17.056;2023-02-27T09:42:25;3.60;69.10
69225;DHT22;56333;51.306;17.056;2023-02-27T09:44:01;3.59;69.00
69225;DHT22;56333;51.306;17.056;2023-02-27T09:45:36;3.61;68.82
69225;DHT22;56333;51.306;17.056;2023-02-27T09:47:08;3.65;69.22
69225;DHT22;56333;51.306;17.056;2023-02-27T09:48:44;3.72;69.30
69225;DHT22;56333;51.306;17.056;2023-02-27T09:50:27;3.79;69.03
69225;DHT22;56333;51.306;17.056;2023-02-27T09:52:02;3.82;68.85
69225;DHT22;56333;51.306;17.056;2023-02-27T09:53:34;3.90;69.05
69225;DHT22;56333;51.306;17.056;2023-02-27T09:55:10;3.99;68.93
69225;DHT22;56333;51.306;17.056;2023-02-27T09:56:47;4.08;68.78
69225;DHT22;56333;51.306;17.056;2023-02-27T09:58:30;4.16;68.38
69225;DHT22;56333;51.306;17.056;2023-02-27T10:00:23;4.18;68.13